Product Details

Toyana Q1012 Angular contact ball bearings

Brand Name Toyana
Model Number Q1012
Min.Order Quantity 1 pcs
Price Negotiable

Product Features

Bore Diameter (mm)180
D1249,4 mm
d180 mm
E261 mm
C74 mm
B74 mm
Weight16,1 Kg
BrandNBS
S7 mm
Basic static load rating (C0)1260 kN

Toyana Q1012 Angular contact ball bearings Specifications


 

interchange Toyana Q1012 Angular contact ball bearings guide
MDCBRSdDf
EGB1012-E40 - 12 mm - 12 mm - - 10 mm -
PCMF 101217 E - 12 mm - 17 mm - - 10 mm -
PCM 101212 M3 mm12 mm14,3 kN12 mm - - 10 mm -
PCM 101220 E– mm12 mm16 kN20 mm - - 10 mm -
PCM 101220 M3 mm12 mm24 kN20 mm - - 10 mm -
EGF10120-E40-B - 12 mm - 12 mm1 mm1 mm10 mm18 mm
PCM 081012 E– mm10 mm7,65 kN12 mm - - 8 mm -
DCL1012 - 20,638 mm11,9 kN - - - 15,875 -
Q1012 - 95 mm18 mm - - - 60 mm -
Q1012 - 95 mm64 kN - - - 60 mm -

National Memorial Cemetery of the Pacific - Surnames Pat-Per

Peck, Ethel Toyama, b. 12/23/1918, d. 05/19/1989, Plot: G 58, bur. ... 06/11/1945, PFC INF CO A 381 WWII, Plot: Q 1012, bur. 06/14/1949, * Peirce, Kenneth A, b

####018000105#### SXXX20 KWAL 042114 A3A024EE

... TIME STATION 3676N 13722E 0642109 TOYAMA LEVELS 0686 0687 0687 ... 20/10 Q1012 RMK A2989= METAR OMRK 042100Z 17005KT 9999 FEW040 

METAR TAF : Yamagata Airport, Yamagata Japan

... at a height of 4000 ft. light snow showers. Change units. METAR: RJSC 161000Z 24004KT 190V290 9999 -SHSN FEW020 SCT030 BKN040 00/M03 Q1012 

####018000099#### SXXX20 KWAL 040909 3D23B7D8

... TIME STATION 3676N 13722E 0640909 TOYAMA LEVELS 0740 0739 0736 ... 29016G26KT 250V320 8000 NSC 27/09 Q1012 RMK A2989= METAR OMRK 

Product Categories - ROULEMENTS BEARINGS Limited of

Toyana NJ20/630 cylindrical roller bearings: EAN : 0662327055721: Inch - Metric : ... Toyana Q1012 angular contact ball bearings: Minimum Buy Quantity : N/A 

Observation History - IEM

... [RJNT] TOYAMA AIRPORT [2011-], [RJFZ] TSUIKI (JASDF) [2011-2011], [RJDT] ... RJFK 080800Z 17006KT 120V210 9999 FEW030 BKN/// 18/08 Q1012

HND / RJTT - FlightAware

AKX320 · B738, Toyama (TOY), 04:11p JST, 05:10p JST. JAL32 · B772, Suvarnabhumi Bangkok Int'l (BKK), 10:14a +07, 05:09p JST. JAL910 · B763, Naha (OKA) 

12 mm x 32 mm x 10 mm SKF S7201 ACD/P4A радиально

Toyana Q1012 радиально-упорные шарикоподшипники. размер (мм):30x55x13; Апертура (мм):30; наружный диаметр (мм):55; марка:CX; номинальное 

China Airlines Boeing 747-400 near Taipei on Mar 9th 2019

Mar 13, 2019 - ... 050V120 9999 -SHRA FEW010 SCT020 BKN025 20/17 Q1012 RMK ... 050V120 5000 SHRA FEW010 SCT025 BKN035 20/17 Q1012= ... China Airlines B738 at Toyama and Nagoya on Jul 8th 2018, fuel emergency

Extreme & Weird Weather of the World - Archive ...

Aug 13, 2018 - MHLM 130000Z 36005KT 9999 FEW028 29/26 Q1012 A2989 NOSIG MHLM 130100Z ... RJNT: Toyama Airport, Japan RJNT 130208Z 

Cell Membrane - Wiley Online Library

1 nt before start of exon 37. agTGpaaTG. Spliced. Abnormal splicing. Toyama. 1640. CAGpTAG. Q1640X ... were 3.12 e 0.85 q 1012 L. А1 in red cell count, 10.9 

UHPP - Yelizovo - MET'MAP - ORBIFLY FLIGHT SCHOOL

140700Z 19005MPS 9999 NSC 18/11 Q1012 R16R/CLRD70 NOSIG RMK MT OBSC QFE756/1008. EXPIRED METARs : 140600Z 18005MPS 9999 NSC 19/12 

international civil aviation organization asia and pacific ... - ICAO

Apr 1, 2006 - METAR NFTF 200700Z 13004KT 9999 BKN020 29/24 Q1012= METAR NFTV 200700Z NIL= 7. ... TOYAMA/Toyama. Colombo. VCBIYMYX

Robust Nonlinear Control Design with Proportional-Integral

Estimated with q=1012. Estimated with API−Observer ... Toyama,. Japan, Sep. 2008. [73] Leu, Y.G., T.T. Lee, and W.Y. Wang. “Observer-Based Adaptive Fuzzy- 

Testime METARit

... oli vähese pilvisusega kõrgusel 457 meetrit. Üldine nähtavus oli rohkem kui 10 kilomeetrit. METAR: RJNO 290700Z 04010KT 9999 FEW015 08/03 Q1012

Nagoya Chubu Centrair International Airport (NGO/RJGG

RJGG 091530Z 07005KT 9999 FEW030 SCT040 BKN160 13/09 Q1012 NOSIG ... RJBT) Rating: 80% 197 km; Toyama: (TOY / RJNT) Rating: 75% 202 km

antonio carlos dinato - Teses USP

Nov 4, 2008 - Pereira Filho, Paulo Toyama e Paulo Sérgio Batista pela amizade e bom humor. Ao Prof. ... 35003KT 9999 FEW040 33/19 Q1012= 05/11/2008

NSF Product and Service Listings - Listing Category Search

Kurobe-City, Toyama 938-8585. Japan. 81 120 52 3132 ... Facility : Toyama, Japan ... Wilsonart Quartz - Q1012, Lorraine, All food contact types, 428°. Wilsonart 

Product Categories - Ruville BEARING COMPANY of page 50

Toyana Q1012 angular contact ball bearings · 12,7 mm x 33,338 mm x 9,53 mm SIGMA LJT 1/2 angular contact ball bearings · 35 mm x 72 mm x 45 mm KOYO 
All Products Contact Now